Time;durP1;ratioP1;P1;durP2;ratioP2;P2;SDS_P1;SDS_P2;PMS_P1;PMS_P2;Temp;Humidity;BMP_temperature;BMP_pressure;BME280_temperature;BME280_humidity;BME280_pressure;Samples;Min_cycle;Max_cycle;Signal;HPM_P1;HPM_P2
2021/04/26 00:01:03;;;;;;;8.60;1.70;;;4.60;99.90;;;;;;5074537;28;20534;-71
2021/04/26 00:03:29;;;;;;;7.00;1.70;;;4.50;99.90;;;;;;5073637;28;20119;-72
2021/04/26 00:05:54;;;;;;;13.88;1.60;;;4.60;99.90;;;;;;5073444;28;20127;-72
2021/04/26 00:08:20;;;;;;;5.07;1.50;;;4.50;99.90;;;;;;5073804;28;20430;-72
2021/04/26 00:10:45;;;;;;;7.32;2.33;;;4.50;99.90;;;;;;5073984;28;20017;-71
2021/04/26 00:13:11;;;;;;;8.98;1.70;;;4.50;99.90;;;;;;5073379;28;20074;-71
2021/04/26 00:15:36;;;;;;;6.57;1.67;;;4.50;99.90;;;;;;5073438;28;20031;-72
2021/04/26 00:18:02;;;;;;;6.32;1.35;;;4.50;99.90;;;;;;5074211;28;20025;-72
2021/04/26 00:20:30;;;;;;;6.43;1.40;;;4.50;99.90;;;;;;5072981;28;20031;-72
2021/04/26 00:22:57;;;;;;;13.48;1.80;;;4.50;99.90;;;;;;5073610;28;20552;-72
2021/04/26 00:25:24;;;;;;;4.38;1.70;;;4.40;99.90;;;;;;5073607;28;20174;-73
2021/04/26 00:27:50;;;;;;;8.20;1.80;;;4.40;99.90;;;;;;5073026;28;20024;-72
2021/04/26 00:30:18;;;;;;;6.32;1.48;;;4.50;99.90;;;;;;5073986;28;20051;-71
2021/04/26 00:32:45;;;;;;;4.97;1.60;;;4.40;99.90;;;;;;5073417;28;20044;-72
2021/04/26 00:35:11;;;;;;;14.18;1.83;;;4.40;99.90;;;;;;5072920;28;20023;-72
2021/04/26 00:37:37;;;;;;;20.67;4.80;;;4.40;99.90;;;;;;5073448;28;20443;-71
2021/04/26 00:40:05;;;;;;;6.10;1.40;;;4.40;99.90;;;;;;5073214;28;20104;-71
2021/04/26 00:42:34;;;;;;;10.07;2.15;;;4.40;99.90;;;;;;5075318;28;20032;-71
2021/04/26 00:45:00;;;;;;;9.23;1.80;;;4.30;99.90;;;;;;5073578;28;20105;-72
2021/04/26 00:47:25;;;;;;;3.90;1.80;;;4.30;99.90;;;;;;5072283;28;20472;-72
2021/04/26 00:49:51;;;;;;;4.95;1.50;;;4.30;99.90;;;;;;5073222;28;20044;-72
2021/04/26 00:52:19;;;;;;;14.15;1.70;;;4.30;99.90;;;;;;5074722;28;20123;-72
2021/04/26 00:54:45;;;;;;;9.27;2.17;;;4.30;99.90;;;;;;5073167;28;20024;-72
2021/04/26 00:57:11;;;;;;;6.82;2.33;;;4.30;99.90;;;;;;5081091;28;20538;-72
2021/04/26 00:59:37;;;;;;;11.48;1.75;;;4.20;99.90;;;;;;5073216;28;21076;-72
2021/04/26 01:02:02;;;;;;;5.93;1.58;;;4.20;99.90;;;;;;5072260;28;20380;-72
2021/04/26 01:04:30;;;;;;;26.67;3.88;;;4.20;99.90;;;;;;5073044;28;20115;-72
2021/04/26 01:06:57;;;;;;;9.48;2.42;;;4.20;99.90;;;;;;5073093;28;20028;-71
2021/04/26 01:09:22;;;;;;;8.75;1.67;;;4.10;99.90;;;;;;5071983;28;20028;-72
2021/04/26 01:12:16;;;;;;;6.97;1.40;;;4.10;99.90;;;;;;5072953;28;20024;-72
2021/04/26 01:15:12;;;;;;;10.43;1.60;;;4.10;99.90;;;;;;5072985;28;20051;-72
2021/04/26 01:17:48;;;;;;;4.60;1.40;;;4.10;99.90;;;;;;5072558;28;20020;-72
2021/04/26 01:20:21;;;;;;;5.68;1.30;;;4.10;99.90;;;;;;5072775;28;20176;-72
2021/04/26 01:23:05;;;;;;;6.70;1.52;;;4.10;99.90;;;;;;5072259;28;20036;-71
2021/04/26 01:25:33;;;;;;;4.55;1.38;;;4.10;99.90;;;;;;5072928;28;20103;-72
2021/04/26 01:28:20;;;;;;;4.35;1.60;;;4.00;99.90;;;;;;5072735;28;20054;-71
2021/04/26 01:31:04;;;;;;;7.90;1.75;;;4.00;99.90;;;;;;5071608;28;20468;-72
2021/04/26 01:33:36;;;;;;;4.70;1.70;;;4.00;99.90;;;;;;5072191;28;20131;-72
2021/04/26 01:36:05;;;;;;;5.63;2.08;;;4.00;99.90;;;;;;5072488;28;20017;-72
2021/04/26 01:38:39;;;;;;;7.38;1.55;;;4.00;99.90;;;;;;5071521;28;20032;-72
2021/04/26 01:41:06;;;;;;;5.25;1.70;;;4.00;99.90;;;;;;5072404;28;20068;-71
2021/04/26 01:43:32;;;;;;;11.90;1.75;;;3.90;99.90;;;;;;5071377;28;20506;-73
2021/04/26 01:46:02;;;;;;;6.78;1.55;;;4.00;99.90;;;;;;5072083;28;20063;-73
2021/04/26 01:48:31;;;;;;;4.13;1.98;;;3.90;99.90;;;;;;5072187;28;20025;-74
2021/04/26 01:50:58;;;;;;;11.55;2.13;;;3.90;99.90;;;;;;5071722;28;20116;-72
2021/04/26 01:53:24;;;;;;;9.18;1.75;;;3.90;99.90;;;;;;5071807;28;20078;-73
2021/04/26 01:55:56;;;;;;;9.68;1.80;;;3.90;99.90;;;;;;5072093;28;20104;-72
2021/04/26 01:58:22;;;;;;;14.80;1.65;;;3.90;99.90;;;;;;5071422;28;20020;-73
2021/04/26 02:00:48;;;;;;;10.13;2.08;;;3.90;99.90;;;;;;5072357;28;20021;-72
2021/04/26 02:03:19;;;;;;;5.25;1.60;;;3.80;99.90;;;;;;5071124;28;20487;-73
2021/04/26 02:05:53;;;;;;;9.07;1.77;;;3.80;99.90;;;;;;5071616;28;20024;-72
2021/04/26 02:08:20;;;;;;;8.07;1.83;;;3.70;99.90;;;;;;5072062;28;20024;-72
2021/04/26 02:10:46;;;;;;;11.95;1.65;;;3.80;99.90;;;;;;5072218;28;20013;-72
2021/04/26 02:13:17;;;;;;;5.07;1.55;;;3.70;99.90;;;;;;5071273;28;20516;-72
2021/04/26 02:15:43;;;;;;;8.90;2.15;;;3.70;99.90;;;;;;5071841;28;20472;-71
2021/04/26 02:18:09;;;;;;;8.18;1.73;;;3.70;99.90;;;;;;5072139;28;20101;-72
2021/04/26 02:20:35;;;;;;;3.60;1.85;;;3.70;99.90;;;;;;5070849;28;20063;-72
2021/04/26 02:23:00;;;;;;;4.15;1.60;;;3.70;99.90;;;;;;5072018;28;20028;-72
2021/04/26 02:25:26;;;;;;;5.30;1.40;;;3.60;99.90;;;;;;5071585;28;20538;-72
2021/04/26 02:27:51;;;;;;;6.72;1.70;;;3.60;99.90;;;;;;5071428;28;20024;-72
2021/04/26 02:30:17;;;;;;;9.05;2.40;;;3.60;99.90;;;;;;5071786;28;20503;-72
2021/04/26 02:33:01;;;;;;;6.55;2.05;;;3.60;99.90;;;;;;5070894;28;20056;-72
2021/04/26 02:35:38;;;;;;;4.72;1.52;;;3.60;99.90;;;;;;5071397;28;20024;-72
2021/04/26 02:38:07;;;;;;;6.90;1.80;;;3.60;99.90;;;;;;5071837;28;20048;-72
2021/04/26 02:40:46;;;;;;;5.10;1.85;;;3.50;99.90;;;;;;5069801;28;20039;-72
2021/04/26 02:43:13;;;;;;;10.05;1.80;;;3.50;99.90;;;;;;5059048;28;20024;-72
2021/04/26 02:45:47;;;;;;;8.80;1.52;;;3.50;99.90;;;;;;5071753;28;20102;-72
2021/04/26 02:48:13;;;;;;;5.50;1.42;;;3.40;99.90;;;;;;5069552;28;20029;-72
2021/04/26 02:50:40;;;;;;;8.23;1.92;;;3.50;99.90;;;;;;5071658;28;20032;-71
2021/04/26 02:53:06;;;;;;;3.20;1.30;;;3.40;99.90;;;;;;5072982;28;20103;-73
2021/04/26 02:55:35;;;;;;;5.70;1.45;;;3.40;99.90;;;;;;5071340;28;20025;-72
2021/04/26 02:58:01;;;;;;;5.78;1.63;;;3.40;99.90;;;;;;5075494;28;20084;-73
2021/04/26 03:00:29;;;;;;;7.65;1.70;;;3.40;99.90;;;;;;5075029;28;20432;-72
2021/04/26 03:02:56;;;;;;;9.65;1.90;;;3.40;99.90;;;;;;5070884;28;20064;-72
2021/04/26 03:05:23;;;;;;;7.43;1.55;;;3.40;99.90;;;;;;5071334;28;20373;-72
2021/04/26 03:07:49;;;;;;;11.15;1.85;;;3.30;99.90;;;;;;5070784;28;20357;-72
2021/04/26 03:10:16;;;;;;;8.75;1.67;;;3.40;99.90;;;;;;5071329;28;20476;-71
2021/04/26 03:12:46;;;;;;;6.47;1.48;;;3.30;99.90;;;;;;5070779;28;20066;-71
2021/04/26 03:15:16;;;;;;;6.05;1.60;;;3.30;99.90;;;;;;5073227;28;20028;-72
2021/04/26 03:17:42;;;;;;;5.70;1.77;;;3.30;99.90;;;;;;5075079;28;20028;-71
2021/04/26 03:20:14;;;;;;;7.70;1.67;;;3.30;99.90;;;;;;5075059;28;20020;-72
2021/04/26 03:22:40;;;;;;;9.32;2.03;;;3.30;99.90;;;;;;5073962;28;20024;-72
2021/04/26 03:25:07;;;;;;;6.28;1.63;;;3.40;99.90;;;;;;5074820;28;20032;-72
2021/04/26 03:27:34;;;;;;;13.32;3.25;;;3.30;99.90;;;;;;5075054;28;20797;-73
2021/04/26 03:30:01;;;;;;;8.75;2.00;;;3.30;99.90;;;;;;5074415;28;20025;-72
2021/04/26 03:32:28;;;;;;;9.15;1.77;;;3.30;99.90;;;;;;5074491;28;20059;-72
2021/04/26 03:34:54;;;;;;;7.45;1.80;;;3.30;99.90;;;;;;5074809;28;20495;-72
2021/04/26 03:37:20;;;;;;;4.90;1.48;;;3.30;99.90;;;;;;5073717;28;20557;-72
2021/04/26 03:39:47;;;;;;;12.60;2.05;;;3.30;99.90;;;;;;5074722;28;20040;-72
2021/04/26 03:42:17;;;;;;;5.53;1.90;;;3.30;99.90;;;;;;5074827;28;20075;-72
2021/04/26 03:44:44;;;;;;;3.67;1.50;;;3.30;99.90;;;;;;5074844;28;20029;-72
2021/04/26 03:47:10;;;;;;;8.60;1.88;;;3.30;99.90;;;;;;5075145;28;20638;-73
2021/04/26 03:49:36;;;;;;;5.10;1.77;;;3.20;99.90;;;;;;5075038;28;20037;-72
2021/04/26 03:52:02;;;;;;;7.15;1.67;;;3.20;99.90;;;;;;5074297;28;20032;-73
2021/04/26 03:54:27;;;;;;;8.60;1.80;;;3.20;99.90;;;;;;5074347;28;20106;-73
2021/04/26 03:56:53;;;;;;;5.40;2.10;;;3.20;99.90;;;;;;5074594;28;20108;-72
2021/04/26 03:59:18;;;;;;;11.70;1.83;;;3.20;99.90;;;;;;5073479;28;20380;-72
2021/04/26 04:01:45;;;;;;;8.23;2.05;;;3.10;99.90;;;;;;5074423;28;20203;-73
2021/04/26 04:04:10;;;;;;;4.03;1.50;;;3.10;99.90;;;;;;5073397;28;20140;-73
2021/04/26 04:06:36;;;;;;;7.28;1.67;;;3.10;99.90;;;;;;5073969;28;20017;-73
2021/04/26 04:09:04;;;;;;;13.80;3.28;;;3.20;99.90;;;;;;5073804;28;20021;-72
2021/04/26 04:11:30;;;;;;;9.98;1.73;;;3.10;99.90;;;;;;5073046;28;20023;-72
2021/04/26 04:13:55;;;;;;;6.40;1.35;;;3.10;99.90;;;;;;5074081;28;20025;-72
2021/04/26 04:16:21;;;;;;;8.38;1.77;;;3.10;99.90;;;;;;5073905;28;20017;-72
2021/04/26 04:18:47;;;;;;;13.80;1.73;;;3.00;99.90;;;;;;5073461;28;20073;-73
2021/04/26 04:21:13;;;;;;;5.53;3.53;;;3.00;99.90;;;;;;5073882;28;20350;-73
2021/04/26 04:23:38;;;;;;;3.42;1.50;;;3.00;99.90;;;;;;5073705;28;20365;-72
2021/04/26 04:26:04;;;;;;;5.20;2.05;;;3.00;99.90;;;;;;5072588;28;20135;-72
2021/04/26 04:28:31;;;;;;;7.45;1.60;;;3.00;99.90;;;;;;5073660;28;20108;-73
2021/04/26 04:30:57;;;;;;;12.40;2.05;;;2.90;99.90;;;;;;5073649;28;20021;-73
2021/04/26 04:33:23;;;;;;;9.82;1.65;;;3.00;99.90;;;;;;5072482;28;20127;-72
2021/04/26 04:35:58;;;;;;;10.35;3.65;;;2.90;99.90;;;;;;5073495;28;20074;-72
2021/04/26 04:38:27;;;;;;;5.90;1.80;;;2.90;99.90;;;;;;5073116;28;20545;-73
2021/04/26 04:40:56;;;;;;;5.35;1.65;;;2.90;99.90;;;;;;5073091;28;20020;-73
2021/04/26 04:43:23;;;;;;;5.38;1.95;;;3.00;99.90;;;;;;5073202;28;20033;-73
2021/04/26 04:45:49;;;;;;;11.43;1.83;;;2.90;99.90;;;;;;5073969;28;20028;-73
2021/04/26 04:48:15;;;;;;;7.47;2.00;;;2.90;99.90;;;;;;5076048;28;20035;-73
2021/04/26 04:50:42;;;;;;;5.93;2.10;;;2.90;99.90;;;;;;5075889;28;20023;-75
2021/04/26 04:53:07;;;;;;;6.55;1.70;;;2.90;99.90;;;;;;5075781;28;20056;-73
2021/04/26 04:55:33;;;;;;;7.65;1.77;;;2.90;99.90;;;;;;5072588;28;20067;-73
2021/04/26 04:57:59;;;;;;;7.40;2.00;;;3.00;99.90;;;;;;5073822;28;20027;-73
2021/04/26 05:00:24;;;;;;;7.97;1.88;;;3.00;99.90;;;;;;5077115;28;20028;-73
2021/04/26 05:02:50;;;;;;;3.53;1.75;;;3.00;99.90;;;;;;5074819;28;20385;-73
2021/04/26 05:05:15;;;;;;;5.15;1.75;;;3.00;99.90;;;;;;5073137;28;20464;-73
2021/04/26 05:07:41;;;;;;;8.32;1.98;;;3.10;99.90;;;;;;5072368;28;20032;-73
2021/04/26 05:10:07;;;;;;;6.70;2.00;;;3.10;99.90;;;;;;5073114;28;20067;-73
2021/04/26 05:12:33;;;;;;;3.03;1.60;;;3.20;99.90;;;;;;5072633;28;20035;-73
2021/04/26 05:14:59;;;;;;;4.95;2.00;;;3.20;99.90;;;;;;5072196;28;20020;-73
2021/04/26 05:17:26;;;;;;;5.63;1.50;;;3.20;99.90;;;;;;5072290;28;20024;-73
2021/04/26 05:19:52;;;;;;;8.02;2.30;;;3.20;99.90;;;;;;5072714;28;20021;-73
2021/04/26 05:22:21;;;;;;;5.53;2.00;;;3.30;99.90;;;;;;5071852;28;20111;-73
2021/04/26 05:24:47;;;;;;;4.90;2.00;;;3.30;99.90;;;;;;5072441;28;20510;-73
2021/04/26 05:27:12;;;;;;;8.95;2.05;;;3.40;99.90;;;;;;5072148;28;20032;-72
2021/04/26 05:29:38;;;;;;;6.47;1.83;;;3.40;99.90;;;;;;5071916;28;20035;-72
2021/04/26 05:32:04;;;;;;;7.28;2.15;;;3.40;99.90;;;;;;5072187;28;20091;-73
2021/04/26 05:34:29;;;;;;;10.00;1.88;;;3.50;99.90;;;;;;5071967;28;20112;-72
2021/04/26 05:36:55;;;;;;;9.95;3.30;;;3.50;99.90;;;;;;5071431;28;20111;-73
2021/04/26 05:39:21;;;;;;;8.73;2.80;;;3.60;99.90;;;;;;5072239;28;20056;-72
2021/04/26 05:41:46;;;;;;;9.70;2.13;;;3.70;99.90;;;;;;5072138;28;20020;-72
2021/04/26 05:44:12;;;;;;;7.78;2.00;;;3.70;99.90;;;;;;5071504;28;20028;-73
2021/04/26 05:46:38;;;;;;;5.43;1.90;;;3.70;99.90;;;;;;5072230;28;20021;-72
2021/04/26 05:49:03;;;;;;;5.15;1.77;;;3.80;99.90;;;;;;5071861;28;20119;-73
2021/04/26 05:51:29;;;;;;;8.07;2.25;;;3.80;99.90;;;;;;5071158;28;20028;-73
2021/04/26 05:53:55;;;;;;;13.00;2.72;;;3.90;99.90;;;;;;5072068;28;20025;-73
2021/04/26 05:56:21;;;;;;;7.45;2.03;;;3.90;99.90;;;;;;5072074;28;20021;-73
2021/04/26 05:58:47;;;;;;;7.75;2.65;;;4.00;99.90;;;;;;5071165;28;20024;-72
2021/04/26 06:01:13;;;;;;;5.70;1.77;;;4.00;99.90;;;;;;5071711;28;20479;-74
2021/04/26 06:03:41;;;;;;;8.18;1.92;;;4.10;99.90;;;;;;5071315;28;20025;-74
2021/04/26 06:06:06;;;;;;;10.20;1.85;;;4.10;99.90;;;;;;5072153;28;20043;-73
2021/04/26 06:08:32;;;;;;;7.20;3.13;;;4.20;99.90;;;;;;5072212;28;20476;-73
2021/04/26 06:10:57;;;;;;;6.38;2.10;;;4.30;99.90;;;;;;5071484;28;20464;-74
2021/04/26 06:13:23;;;;;;;5.40;2.40;;;4.40;99.90;;;;;;5071822;28;20421;-72
2021/04/26 06:15:49;;;;;;;12.00;3.10;;;4.40;99.90;;;;;;5071845;28;20020;-73
2021/04/26 06:18:18;;;;;;;8.15;1.88;;;4.50;99.90;;;;;;5070865;28;20029;-73
2021/04/26 06:20:45;;;;;;;7.40;1.98;;;4.60;99.90;;;;;;5071906;28;20024;-72
2021/04/26 06:23:11;;;;;;;3.88;1.92;;;4.70;99.90;;;;;;5072147;28;20032;-72
2021/04/26 06:25:39;;;;;;;6.20;2.15;;;4.80;99.90;;;;;;5070986;28;20036;-73
2021/04/26 06:28:06;;;;;;;9.05;2.10;;;4.80;99.90;;;;;;5071642;28;20020;-73
2021/04/26 06:30:32;;;;;;;6.45;1.80;;;5.00;99.90;;;;;;5071845;28;20381;-74
2021/04/26 06:32:58;;;;;;;7.70;2.13;;;5.10;99.90;;;;;;5070622;28;20045;-74
2021/04/26 06:35:25;;;;;;;7.03;2.25;;;5.10;99.90;;;;;;5071539;28;20067;-73
2021/04/26 06:37:51;;;;;;;11.10;2.10;;;5.20;99.90;;;;;;5072279;28;20025;-73
2021/04/26 06:40:17;;;;;;;6.57;2.65;;;5.30;99.90;;;;;;5070843;28;20104;-73
2021/04/26 06:42:43;;;;;;;8.52;2.17;;;5.40;99.90;;;;;;5071934;28;20111;-74
2021/04/26 06:45:09;;;;;;;4.93;2.17;;;5.40;99.90;;;;;;5071611;28;20028;-73
2021/04/26 06:47:35;;;;;;;13.02;2.03;;;5.50;99.90;;;;;;5070670;28;20027;-74
2021/04/26 06:50:02;;;;;;;11.35;1.90;;;5.60;99.90;;;;;;5073875;28;20029;-72
2021/04/26 06:52:27;;;;;;;12.98;2.20;;;5.70;99.90;;;;;;5075159;28;20016;-72
2021/04/26 06:54:53;;;;;;;7.43;1.85;;;5.70;99.90;;;;;;5074802;28;20029;-72
2021/04/26 06:57:18;;;;;;;5.07;1.80;;;5.80;99.90;;;;;;5074978;28;20025;-73
2021/04/26 06:59:44;;;;;;;10.40;1.92;;;5.90;99.90;;;;;;5075712;28;20108;-73
2021/04/26 07:02:10;;;;;;;6.25;1.98;;;5.90;99.90;;;;;;5075296;28;20468;-73
2021/04/26 07:04:36;;;;;;;3.50;2.03;;;6.00;99.90;;;;;;5076080;28;20037;-73
2021/04/26 07:07:02;;;;;;;3.63;2.00;;;6.10;99.90;;;;;;5075239;28;20044;-73
2021/04/26 07:09:28;;;;;;;9.05;1.85;;;6.10;99.90;;;;;;5074946;28;20376;-73
2021/04/26 07:11:54;;;;;;;5.65;1.50;;;6.20;99.90;;;;;;5075009;28;20025;-73
2021/04/26 07:14:20;;;;;;;4.82;1.80;;;6.30;99.90;;;;;;5073839;28;20519;-73
2021/04/26 07:16:47;;;;;;;7.47;1.63;;;6.40;99.90;;;;;;5075094;28;20112;-73
2021/04/26 07:19:13;;;;;;;6.00;2.22;;;6.40;99.90;;;;;;5074252;28;20384;-73
2021/04/26 07:21:38;;;;;;;8.73;1.70;;;6.50;99.90;;;;;;5074191;28;20028;-73
2021/04/26 07:24:05;;;;;;;8.73;1.52;;;6.60;99.90;;;;;;5074746;28;20119;-73
2021/04/26 07:26:31;;;;;;;4.72;2.00;;;6.60;99.90;;;;;;5074219;28;20016;-73
2021/04/26 07:28:56;;;;;;;3.35;1.30;;;6.70;99.90;;;;;;5074267;28;20379;-73
2021/04/26 07:31:22;;;;;;;6.68;1.50;;;6.80;99.90;;;;;;5074662;28;20024;-73
2021/04/26 07:33:49;;;;;;;3.15;1.20;;;6.90;99.90;;;;;;5074769;28;20048;-73
2021/04/26 07:36:14;;;;;;;6.55;1.65;;;6.80;99.90;;;;;;5074006;28;20029;-72
2021/04/26 07:38:40;;;;;;;3.42;1.70;;;6.90;99.90;;;;;;5075292;28;20016;-73
2021/04/26 07:41:06;;;;;;;5.57;1.50;;;7.00;99.90;;;;;;5074987;28;20384;-73
2021/04/26 07:43:31;;;;;;;4.90;1.40;;;7.00;99.90;;;;;;5073690;28;20381;-74
2021/04/26 07:45:57;;;;;;;5.63;2.08;;;7.10;99.90;;;;;;5074942;28;20024;-72
2021/04/26 07:48:23;;;;;;;7.20;1.83;;;7.20;99.90;;;;;;5074533;28;20032;-73
2021/04/26 07:50:48;;;;;;;5.85;1.50;;;7.30;99.90;;;;;;5074653;28;20024;-74
2021/04/26 07:53:14;;;;;;;4.43;1.42;;;7.30;99.90;;;;;;5074780;28;20036;-73
2021/04/26 07:55:39;;;;;;;2.22;1.30;;;7.40;99.90;;;;;;5074255;28;20017;-72
2021/04/26 07:58:05;;;;;;;6.10;1.50;;;7.40;99.90;;;;;;5074082;28;20036;-73
2021/04/26 08:00:31;;;;;;;6.43;1.67;;;7.50;99.90;;;;;;5074443;28;20027;-74
2021/04/26 08:02:57;;;;;;;4.95;1.35;;;7.50;99.90;;;;;;5074318;28;20460;-73
2021/04/26 08:05:23;;;;;;;2.65;1.05;;;7.50;99.90;;;;;;5073310;28;20027;-74
2021/04/26 08:07:48;;;;;;;6.68;1.50;;;7.60;99.90;;;;;;5074101;28;20082;-73
2021/04/26 08:10:15;;;;;;;2.92;1.63;;;7.70;99.90;;;;;;5073614;28;20044;-73
2021/04/26 08:12:41;;;;;;;3.40;1.30;;;7.70;99.90;;;;;;5074488;28;20469;-74
2021/04/26 08:15:10;;;;;;;3.35;1.67;;;7.80;99.90;;;;;;5074828;28;20027;-73
2021/04/26 08:17:36;;;;;;;5.45;1.40;;;7.90;99.90;;;;;;5073717;28;20040;-72
2021/04/26 08:20:03;;;;;;;4.45;1.52;;;7.90;99.90;;;;;;5074155;28;20081;-73
2021/04/26 08:22:32;;;;;;;5.85;1.17;;;8.10;99.90;;;;;;5073835;28;20108;-73
2021/04/26 08:24:58;;;;;;;4.28;1.30;;;8.10;99.90;;;;;;5073118;28;20073;-73
2021/04/26 08:27:23;;;;;;;5.45;1.83;;;8.10;99.90;;;;;;5073470;28;20021;-73
2021/04/26 08:29:49;;;;;;;3.83;1.50;;;8.20;99.90;;;;;;5074429;28;20396;-73
2021/04/26 08:32:15;;;;;;;4.70;1.83;;;8.30;99.90;;;;;;5072929;28;20040;-73
2021/04/26 08:34:40;;;;;;;5.15;1.55;;;8.40;98.60;;;;;;5074423;28;20052;-73
2021/04/26 08:37:06;;;;;;;4.68;1.30;;;8.40;99.20;;;;;;5074430;28;20032;-72
2021/04/26 08:39:32;;;;;;;3.60;1.60;;;8.50;99.30;;;;;;5072725;28;20031;-73
2021/04/26 08:41:57;;;;;;;2.72;1.25;;;8.50;99.40;;;;;;5073747;28;20019;-72
2021/04/26 08:44:23;;;;;;;4.75;1.70;;;8.60;98.20;;;;;;5073554;28;20036;-72
2021/04/26 08:46:49;;;;;;;5.28;1.42;;;8.60;98.30;;;;;;5072806;28;20017;-73
2021/04/26 08:49:19;;;;;;;3.92;1.30;;;8.70;98.30;;;;;;5073926;28;20036;-73
2021/04/26 08:51:45;;;;;;;6.57;1.37;;;8.70;98.90;;;;;;5074441;28;20025;-74
2021/04/26 08:54:18;;;;;;;1.67;1.40;;;8.80;97.50;;;;;;5072837;28;20381;-74
2021/04/26 08:56:45;;;;;;;3.60;1.48;;;8.90;97.90;;;;;;5074260;28;20028;-74
2021/04/26 08:59:12;;;;;;;6.72;1.35;;;8.90;97.80;;;;;;5074438;28;20033;-73
2021/04/26 09:01:37;;;;;;;3.88;1.00;;;8.90;97.40;;;;;;5072726;28;20028;-74
2021/04/26 09:04:05;;;;;;;7.13;2.58;;;9.00;96.60;;;;;;5073201;28;20659;-73
2021/04/26 09:06:52;;;;;;;5.82;1.58;;;9.10;96.60;;;;;;5072649;28;20025;-73
2021/04/26 09:09:41;;;;;;;5.32;1.35;;;9.10;95.80;;;;;;5072938;28;20016;-73
2021/04/26 09:12:23;;;;;;;4.88;1.45;;;9.10;95.90;;;;;;5072807;28;20043;-74
2021/04/26 09:14:49;;;;;;;3.72;1.50;;;9.30;95.60;;;;;;5072154;28;20361;-73
2021/04/26 09:17:32;;;;;;;4.10;1.52;;;9.30;95.20;;;;;;5072611;28;20078;-73
2021/04/26 09:20:19;;;;;;;6.10;1.88;;;9.30;95.10;;;;;;5072930;28;20028;-73
2021/04/26 09:22:50;;;;;;;3.05;1.55;;;9.40;95.20;;;;;;5072082;28;20121;-74
2021/04/26 09:25:20;;;;;;;1.92;1.70;;;9.40;93.90;;;;;;5072419;28;20047;-73
2021/04/26 09:28:02;;;;;;;3.03;1.70;;;9.50;94.20;;;;;;5071593;28;20025;-72
2021/04/26 09:30:52;;;;;;;7.20;2.10;;;9.60;93.90;;;;;;5072536;28;20028;-72
2021/04/26 09:33:34;;;;;;;3.72;2.10;;;9.70;93.90;;;;;;5071886;28;20048;-73
2021/04/26 09:36:21;;;;;;;5.47;2.13;;;9.70;93.10;;;;;;5071610;28;20475;-73
2021/04/26 09:38:52;;;;;;;5.10;1.88;;;9.70;93.20;;;;;;5073020;28;20041;-73
2021/04/26 09:41:22;;;;;;;3.58;1.90;;;9.90;93.30;;;;;;5072492;28;20047;-73
2021/04/26 09:44:09;;;;;;;3.67;1.75;;;9.90;92.50;;;;;;5071673;28;20028;-72
2021/04/26 09:46:53;;;;;;;3.72;1.83;;;9.90;93.00;;;;;;5071856;28;20029;-73
2021/04/26 09:49:22;;;;;;;4.88;1.83;;;10.00;92.60;;;;;;5071532;28;20036;-74
2021/04/26 09:51:54;;;;;;;4.78;2.25;;;10.10;93.60;;;;;;5072910;28;20025;-73
2021/04/26 09:54:38;;;;;;;8.63;2.15;;;10.20;93.00;;;;;;5072400;28;20048;-74
2021/04/26 09:57:03;;;;;;;4.68;1.90;;;10.40;92.80;;;;;;5071742;28;20028;-74
2021/04/26 09:59:29;;;;;;;5.88;2.22;;;10.30;92.10;;;;;;5072472;28;20021;-73
2021/04/26 10:01:56;;;;;;;6.85;2.65;;;10.30;91.00;;;;;;5072521;28;20033;-73
2021/04/26 10:04:21;;;;;;;5.57;2.50;;;10.40;90.90;;;;;;5071131;28;20435;-74
2021/04/26 10:06:47;;;;;;;3.60;2.47;;;10.30;90.30;;;;;;5072331;28;20020;-73
2021/04/26 10:09:13;;;;;;;7.75;3.38;;;10.30;90.90;;;;;;5071876;28;20020;-73
2021/04/26 10:11:39;;;;;;;2.78;2.13;;;10.30;89.90;;;;;;5071898;28;20017;-74
2021/04/26 10:14:17;;;;;;;8.60;2.10;;;10.30;90.80;;;;;;5072409;28;20051;-72
2021/04/26 10:17:03;;;;;;;7.85;2.53;;;10.40;91.50;;;;;;5072523;28;20028;-75
2021/04/26 10:19:47;;;;;;;4.80;2.08;;;10.50;90.20;;;;;;5071909;28;20044;-74
2021/04/26 10:22:13;;;;;;;4.65;2.90;;;10.50;90.00;;;;;;5072163;28;20020;-74
2021/04/26 10:24:55;;;;;;;4.45;2.40;;;10.50;90.40;;;;;;5072761;28;20028;-74
2021/04/26 10:27:34;;;;;;;4.72;2.38;;;10.60;90.60;;;;;;5074922;28;20417;-72
2021/04/26 10:30:06;;;;;;;5.93;2.65;;;10.70;89.70;;;;;;5076269;28;20066;-73
2021/04/26 10:32:54;;;;;;;3.83;2.20;;;10.70;90.30;;;;;;5074915;28;20167;-73
2021/04/26 10:35:21;;;;;;;5.85;2.33;;;10.80;90.10;;;;;;5075981;28;20066;-74
2021/04/26 10:37:47;;;;;;;6.32;2.75;;;10.80;89.20;;;;;;5075679;28;20032;-73
2021/04/26 10:40:16;;;;;;;5.18;2.30;;;10.90;88.40;;;;;;5075228;28;20028;-73
2021/04/26 10:42:52;;;;;;;5.15;2.15;;;10.80;89.40;;;;;;5075651;28;20380;-74
2021/04/26 10:45:24;;;;;;;3.50;2.53;;;10.90;87.90;;;;;;5059609;28;20052;-74
2021/04/26 10:47:59;;;;;;;5.95;2.42;;;10.90;88.40;;;;;;5075867;28;20020;-73
2021/04/26 10:50:28;;;;;;;5.85;2.35;;;11.00;89.20;;;;;;5073218;28;20038;-72
2021/04/26 10:52:55;;;;;;;4.35;2.45;;;11.10;85.70;;;;;;5061214;28;20040;-73
2021/04/26 10:55:24;;;;;;;7.18;2.65;;;11.00;81.80;;;;;;5071888;28;20025;-73
2021/04/26 10:57:59;;;;;;;3.60;2.10;;;11.10;82.60;;;;;;5073787;28;20120;-73
2021/04/26 11:00:31;;;;;;;5.88;2.95;;;11.10;81.70;;;;;;5066950;28;20074;-74
2021/04/26 11:02:56;;;;;;;5.80;2.13;;;11.10;80.30;;;;;;5072480;28;20032;-74
2021/04/26 11:05:27;;;;;;;8.68;2.50;;;11.20;80.50;;;;;;5075943;28;20060;-75
2021/04/26 11:08:00;;;;;;;5.93;2.65;;;11.30;82.10;;;;;;5075237;28;20029;-75
2021/04/26 11:10:29;;;;;;;3.78;2.20;;;11.30;81.30;;;;;;5075694;28;20017;-72
2021/04/26 11:12:56;;;;;;;5.78;2.60;;;11.40;80.00;;;;;;5074693;28;20024;-74
2021/04/26 11:15:23;;;;;;;7.53;2.95;;;11.50;80.30;;;;;;5074196;28;20059;-73
2021/04/26 11:17:50;;;;;;;7.70;2.67;;;11.40;78.00;;;;;;5075132;28;20028;-74
2021/04/26 11:20:22;;;;;;;13.77;3.00;;;11.50;79.70;;;;;;5073924;28;20477;-74
2021/04/26 11:22:49;;;;;;;4.72;2.58;;;11.50;78.40;;;;;;5075020;28;20074;-73
2021/04/26 11:25:40;;;;;;;7.05;3.28;;;11.50;80.20;;;;;;5073228;28;20554;-74
2021/04/26 11:28:12;;;;;;;7.18;2.67;;;11.60;81.40;;;;;;5074453;28;20480;-74
2021/04/26 11:30:48;;;;;;;6.90;2.40;;;11.60;77.10;;;;;;5061006;28;20021;-73
2021/04/26 11:33:15;;;;;;;4.78;2.72;;;11.70;78.00;;;;;;5074279;28;20118;-74
2021/04/26 11:36:07;;;;;;;6.97;2.92;;;11.80;78.00;;;;;;5073198;28;20540;-74
2021/04/26 11:38:34;;;;;;;5.82;2.85;;;11.90;77.50;;;;;;5073644;28;20044;-73
2021/04/26 11:41:00;;;;;;;5.43;2.60;;;12.00;77.40;;;;;;5074448;28;20012;-73
2021/04/26 11:43:25;;;;;;;7.25;2.67;;;12.10;76.80;;;;;;5073654;28;20520;-73
2021/04/26 11:45:51;;;;;;;7.82;3.00;;;12.10;77.30;;;;;;5074396;28;20067;-73
2021/04/26 11:48:26;;;;;;;4.30;2.50;;;12.20;77.70;;;;;;5073727;28;20032;-72
2021/04/26 11:50:52;;;;;;;4.90;2.58;;;12.20;75.40;;;;;;5074417;28;20016;-73
2021/04/26 11:53:26;;;;;;;5.70;2.30;;;12.30;74.30;;;;;;5074389;28;20078;-74
2021/04/26 11:55:52;;;;;;;8.70;2.40;;;12.30;74.40;;;;;;5073429;28;20050;-73
2021/04/26 11:58:24;;;;;;;5.35;2.63;;;12.30;73.60;;;;;;5074357;28;20433;-76
2021/04/26 12:00:50;;;;;;;8.85;2.88;;;12.40;76.20;;;;;;5074375;28;20435;-74
2021/04/26 12:03:15;;;;;;;6.40;2.90;;;12.40;77.40;;;;;;5073065;28;20062;-73
2021/04/26 12:05:42;;;;;;;5.97;2.90;;;12.40;81.60;;;;;;5074292;28;20115;-74
2021/04/26 12:08:08;;;;;;;4.20;3.05;;;12.30;84.60;;;;;;5074027;28;20052;-73
2021/04/26 12:10:40;;;;;;;5.43;2.75;;;12.40;81.70;;;;;;5073728;28;20060;-73
2021/04/26 12:13:06;;;;;;;5.20;3.03;;;12.50;81.70;;;;;;5074419;28;20066;-73
2021/04/26 12:15:37;;;;;;;6.55;3.08;;;12.50;80.60;;;;;;5073939;28;20089;-73
2021/04/26 12:18:03;;;;;;;;;;;12.50;78.10;;;;;;5074146;28;20017;-73
2021/04/26 12:20:31;;;;;;;5.82;2.70;;;12.60;79.40;;;;;;5073656;28;19904;-73
2021/04/26 12:23:00;;;;;;;6.30;3.10;;;12.40;78.60;;;;;;5073829;28;20037;-73
2021/04/26 12:25:27;;;;;;;3.40;2.50;;;12.70;77.30;;;;;;5073072;28;20040;-73
2021/04/26 12:28:00;;;;;;;3.25;2.65;;;12.60;77.10;;;;;;5073967;28;20025;-74
2021/04/26 12:30:27;;;;;;;7.95;2.70;;;12.60;78.80;;;;;;5072956;28;20031;-73
2021/04/26 12:32:54;;;;;;;4.55;2.45;;;12.60;79.50;;;;;;5073379;28;20098;-73
2021/04/26 12:35:27;;;;;;;5.28;2.47;;;12.70;80.70;;;;;;5073462;28;20028;-73
2021/04/26 12:37:55;;;;;;;8.88;2.78;;;12.70;77.30;;;;;;5073184;28;20024;-74
2021/04/26 12:40:35;;;;;;;5.68;2.60;;;12.70;78.20;;;;;;5073351;28;20427;-74
2021/04/26 12:43:04;;;;;;;9.07;2.60;;;12.80;78.50;;;;;;5073430;28;20029;-74
2021/04/26 12:45:34;;;;;;;4.68;2.40;;;12.70;81.90;;;;;;5072593;28;20063;-74
2021/04/26 12:48:04;;;;;;;3.88;2.22;;;12.70;80.30;;;;;;5072896;28;20078;-74
2021/04/26 12:50:45;;;;;;;3.67;2.73;;;12.80;79.90;;;;;;5073469;28;20016;-74
2021/04/26 12:53:29;;;;;;;4.28;2.40;;;12.70;78.00;;;;;;5073326;28;20017;-73
2021/04/26 12:56:03;;;;;;;6.03;2.67;;;12.60;79.20;;;;;;5074531;28;20089;-74
2021/04/26 12:58:35;;;;;;;5.35;2.50;;;12.50;80.60;;;;;;5073366;28;20020;-73
2021/04/26 13:01:01;;;;;;;9.23;2.42;;;12.40;80.10;;;;;;5073159;28;20051;-74